Tuesday, February 20, 2018, 3:40 PM GMT
Back to Local

CYBG, Bagotville, Que.

Location: , , Canada Lat: 48.333
Local Time: 3:40 PM GMT (15:40 GMT) Lon: -71
Time Zone: GMT Elev: 521 ft

Show me the last for .
Show Decoded

2018-02-20 15:00 METAR CYBG 201500Z 00000KT 12SM BKN012 OVC017 M07/M09 A3033 RMK SF6SC2 SLP282 =
2018-02-20 14:00 METAR CYBG 201400Z 32004KT 7SM -SHSN BKN012 OVC017 M06/M09 A3036 RMK SF5SC3
                 SLP290 =
2018-02-20 13:32 METAR CYBG 201332Z 32006KT 12SM -SHSN BKN012 OVC016 M06/M09 A3036 RMK SF5SC3
                 SLP292 =
2018-02-20 13:00 METAR CYBG 201300Z 29005KT 15SM -SHSN OVC015 M06/M09 A3035 RMK SC8 SLP289 =
2018-02-20 12:40 METAR CYBG 201240Z 27003KT 15SM -SHSN OVC015 M07/M09 A3035 RMK SC8 SLP288 =
2018-02-20 12:00 METAR CYBG 201200Z 27006KT 25SM OVC016 M07/M09 A3034 RMK SC8 SLP284 =
2018-02-20 11:00 METAR CYBG 201100Z 27010KT 15SM SCT007 OVC012 M06/M08 A3030 RMK SF3SC5 SLP272 =
2018-02-20 10:00 METAR CYBG 201000Z 27010KT 15SM BKN007 OVC015 M05/M06 A3030 RMK SF6SC2 SLP270 =
2018-02-20 09:00 METAR CYBG 200900Z 26011KT 15SM OVC007 M04/M05 A3028 RMK SF8 SLP262 =
2018-02-20 08:00 METAR CYBG 200800Z 30005KT 15SM -SN OVC008 M01/M02 A3024 RMK SF8 SLP249 =
2018-02-20 07:38 METAR CYBG 200738Z 30004KT 15SM -SN SCT008 OVC070 M01/M02 A3024 RMK SF4AC4
                 SLP250 =
2018-02-20 07:00 METAR CYBG 200700Z 27005KT 15SM FEW010 OVC070 M01/M02 A3024 RMK SF2AC6 SLP249 =
2018-02-20 06:42 METAR CYBG 200642Z 27005KT 15SM FEW010 SCT020 OVC070 M01/M02 A3024 RMK SF2SC2AC4
                 SLP251 =
2018-02-20 06:00 METAR CYBG 200600Z 27005KT 5SM -SN SCT010 BKN030 OVC100 M01/M02 A3022 RMK
                 SF3SC3AC2 SLP245 =
2018-02-20 05:00 METAR CYBG 200500Z 27006KT 15SM -SN OVC025 M01/M02 A3020 RMK SC8 SLP236 =
2018-02-20 04:00 METAR CYBG 200400Z 27005KT 15SM BKN025 OVC080 M01/M03 A3020 RMK SC5AC3 SLP237 =
2018-02-20 03:00 METAR CYBG 200300Z 30007KT 25SM OVC090 M00/M03 A3019 RMK AC8 SLP232 =
2018-02-20 02:00 METAR CYBG 200200Z 29010KT 25SM -SN OVC032 01/M03 A3016 RMK SC8 SLP224 =
2018-02-20 01:00 METAR CYBG 200100Z 35003KT 25SM -SN OVC050 01/M04 A3015 RMK SC8 SLP220 =
2018-02-20 00:00 METAR CYBG 200000Z 22003KT 25SM OVC050 M00/M05 A3013 RMK SC8 SLP214 =
2018-02-19 23:00 METAR CYBG 192300Z 00000KT 25SM OVC050 02/M05 A3011 RMK SC8 SLP208 =
2018-02-19 22:00 METAR CYBG 192200Z 00000KT 25SM OVC100 02/M04 A3011 RMK AC8 SLP208 =
2018-02-19 21:00 METAR CYBG 192100Z 26005KT 25SM FEW050 OVC110 04/M04 A3009 RMK SC1AC7 SLP200 =
2018-02-19 20:00 METAR CYBG 192000Z 27004KT 25SM FEW025 BKN100 04/M04 A3009 RMK SC1AC7 SLP199 =
2018-02-19 19:00 METAR CYBG 191900Z 23011G19KT 25SM FEW025 BKN110 05/M05 A3007 RMK SC1AC7 SLP192
                 =
2018-02-19 18:00 METAR CYBG 191800Z 12006KT 25SM FEW025 BKN130 M00/M04 A3008 RMK SC1AC7 SLP199 =
2018-02-19 17:00 METAR CYBG 191700Z 11005KT 25SM FEW025 BKN140 M02/M05 A3012 RMK SC1AC7 SLP210 =

Support USWX by starting your Amazon purchase here.